Time;durP1;ratioP1;P1;durP2;ratioP2;P2;SDS_P1;SDS_P2;PMS_P1;PMS_P2;Temp;Humidity;BMP_temperature;BMP_pressure;BME280_temperature;BME280_humidity;BME280_pressure;Samples;Min_cycle;Max_cycle;Signal;HPM_P1;HPM_P2
2023/03/30 00:00:15;;;;;;;44.40;28.20;;;;;;;3.32;77.04;99047.92;109546;1250;59003;-74
2023/03/30 00:03:02;;;;;;;41.40;26.80;;;;;;;3.38;77.30;99047.20;109336;1251;59027;-74
2023/03/30 00:05:29;;;;;;;40.20;26.60;;;;;;;3.41;77.33;99044.61;109614;1250;67320;-74
2023/03/30 00:07:56;;;;;;;43.50;27.90;;;;;;;3.44;77.69;99039.04;109555;1250;59717;-74
2023/03/30 00:10:23;;;;;;;42.80;25.60;;;;;;;3.47;77.68;99036.48;109579;1250;64005;-75
2023/03/30 00:12:51;;;;;;;40.70;26.10;;;;;;;3.50;78.20;99033.58;109550;1251;58999;-74
2023/03/30 00:15:20;;;;;;;39.70;26.20;;;;;;;3.52;79.10;99029.27;109566;1251;58997;-74
2023/03/30 00:17:48;;;;;;;42.00;26.70;;;;;;;3.53;78.46;99027.48;109616;1251;66674;-74
2023/03/30 00:20:15;;;;;;;40.60;27.40;;;;;;;3.54;77.86;99029.92;109616;1251;60983;-74
2023/03/30 00:22:44;;;;;;;41.20;28.10;;;;;;;3.55;78.02;99029.02;109582;1250;64855;-74
2023/03/30 00:25:12;;;;;;;42.50;28.80;;;;;;;3.55;78.62;99024.97;109597;1251;58890;-74
2023/03/30 00:27:39;;;;;;;42.80;26.70;;;;;;;3.54;78.62;99021.49;109614;1250;59174;-75
2023/03/30 00:30:10;;;;;;;37.40;26.20;;;;;;;3.51;78.62;99019.11;109610;1250;67305;-74
2023/03/30 00:32:37;;;;;;;40.20;26.20;;;;;;;3.49;78.67;99016.57;109538;1251;60683;-74
2023/03/30 00:35:04;;;;;;;36.10;24.70;;;;;;;3.46;78.72;99014.73;109361;1250;64798;-74
2023/03/30 00:37:32;;;;;;;41.40;27.30;;;;;;;3.43;79.10;99010.81;109253;1251;59068;-74
2023/03/30 00:39:58;;;;;;;35.60;26.40;;;;;;;3.40;79.50;99004.61;109545;1250;59195;-74
2023/03/30 00:42:25;;;;;;;38.20;25.80;;;;;;;3.35;79.49;99000.92;109568;1251;66689;-74
2023/03/30 00:45:24;;;;;;;35.90;24.00;;;;;;;3.30;79.80;99001.27;109585;1250;60740;-74
2023/03/30 00:48:00;;;;;;;40.80;26.40;;;;;;;3.24;80.43;98999.91;109589;1250;63720;-74
2023/03/30 00:50:36;;;;;;;39.60;25.30;;;;;;;3.17;80.17;98997.56;109571;1251;58924;-74
2023/03/30 00:53:09;;;;;;;37.10;27.00;;;;;;;3.10;80.97;98997.66;109320;1250;58882;-74
2023/03/30 00:55:38;;;;;;;40.50;26.00;;;;;;;3.03;81.40;98997.19;109595;1250;66809;-74
2023/03/30 00:58:08;;;;;;;39.70;27.20;;;;;;;2.98;81.84;98997.73;109661;1251;59836;-74
2023/03/30 01:00:37;;;;;;;38.80;26.80;;;;;;;2.93;81.89;98992.10;109602;1251;64715;-74
2023/03/30 01:03:10;;;;;;;39.30;27.10;;;;;;;2.88;81.88;98991.23;109587;1250;58991;-74
2023/03/30 01:05:40;;;;;;;36.10;25.30;;;;;;;2.83;81.87;98992.47;109601;1250;58950;-74
2023/03/30 01:08:08;;;;;;;39.60;28.00;;;;;;;2.79;82.26;98994.73;109610;1250;66943;-74
2023/03/30 01:10:35;;;;;;;39.20;27.90;;;;;;;2.74;83.41;98996.50;109577;1251;60714;-74
2023/03/30 01:13:02;;;;;;;42.20;30.00;;;;;;;2.68;83.71;98994.95;109584;1251;64699;-74
2023/03/30 01:15:34;;;;;;;42.40;29.00;;;;;;;2.63;83.48;98987.89;109546;1250;58958;-74
2023/03/30 01:18:07;;;;;;;42.60;31.00;;;;;;;2.61;83.28;98988.66;109631;1251;59108;-73
2023/03/30 01:21:07;;;;;;;43.50;30.80;;;;;;;2.59;83.69;98984.71;109582;1251;66860;-74
2023/03/30 01:24:06;;;;;;;45.80;29.60;;;;;;;2.56;84.23;98985.00;108918;1262;60830;-75
2023/03/30 01:26:41;;;;;;;42.70;31.00;;;;;;;2.49;84.82;98981.40;108656;1264;64720;-74
2023/03/30 01:29:19;;;;;;;42.10;31.20;;;;;;;2.42;85.16;98980.58;108628;1265;59479;-74
2023/03/30 01:32:14;;;;;;;41.70;29.20;;;;;;;2.36;85.21;98981.66;108642;1264;59390;-74
2023/03/30 01:34:50;;;;;;;39.10;26.50;;;;;;;2.32;85.53;98976.01;108664;1264;65703;-74
2023/03/30 01:37:54;;;;;;;41.70;29.00;;;;;;;2.31;85.82;98971.30;108682;1265;60776;-74
2023/03/30 01:40:30;;;;;;;40.60;27.30;;;;;;;2.31;86.41;98961.31;108638;1264;63852;-74
2023/03/30 01:43:15;;;;;;;41.10;29.00;;;;;;;2.29;86.46;98954.89;108635;1264;59258;-74
2023/03/30 01:45:50;;;;;;;35.30;26.80;;;;;;;2.28;86.21;98949.33;108653;1264;59004;-74
2023/03/30 01:48:28;;;;;;;40.20;26.80;;;;;;;2.30;86.37;98948.53;108662;1263;66968;-74
2023/03/30 01:51:01;;;;;;;36.90;28.20;;;;;;;2.32;86.50;98947.60;108662;1264;60757;-74
2023/03/30 01:53:40;;;;;;;37.10;28.50;;;;;;;2.33;86.61;98946.52;108631;1263;64872;-74
2023/03/30 01:56:14;;;;;;;38.20;27.20;;;;;;;2.31;86.66;98943.77;108642;1263;59298;-74
2023/03/30 01:58:58;;;;;;;40.40;27.60;;;;;;;2.28;86.75;98942.85;108672;1264;58937;-74
2023/03/30 02:01:29;;;;;;;39.50;27.80;;;;;;;2.19;87.15;98945.58;108857;1258;65650;-74
2023/03/30 02:03:58;;;;;;;42.70;30.90;;;;;;;2.09;87.37;98949.41;109383;1250;60167;-74
2023/03/30 02:06:42;;;;;;;42.30;29.90;;;;;;;2.01;88.01;98949.87;109551;1251;64836;-74
2023/03/30 02:09:14;;;;;;;38.60;28.50;;;;;;;1.95;88.52;98947.95;109578;1250;59077;-74
2023/03/30 02:11:44;;;;;;;38.90;28.10;;;;;;;1.94;89.29;98947.81;109617;1250;59019;-74
2023/03/30 02:14:14;;;;;;;43.40;30.30;;;;;;;1.92;89.54;98948.77;109576;1250;66757;-74
2023/03/30 02:16:44;;;;;;;;;;;;;;;1.91;89.65;98947.22;109626;1250;59763;-74
2023/03/30 02:19:11;;;;;;;36.60;27.50;;;;;;;1.91;89.78;98943.38;109609;1250;64060;-74
2023/03/30 02:21:37;;;;;;;42.40;29.10;;;;;;;1.93;90.34;98950.66;109584;1251;58944;-74
2023/03/30 02:24:07;;;;;;;42.90;29.30;;;;;;;1.93;90.20;98949.59;109583;1254;59021;-74
2023/03/30 02:26:34;;;;;;;41.20;29.90;;;;;;;1.93;90.19;98943.66;109580;1251;66682;-74
2023/03/30 02:29:01;;;;;;;38.10;27.60;;;;;;;1.93;90.39;98939.27;109582;1250;60753;-74
2023/03/30 02:31:27;;;;;;;35.60;27.70;;;;;;;1.91;90.38;98938.79;109488;1251;64824;-74
2023/03/30 02:34:12;;;;;;;36.90;28.60;;;;;;;1.90;90.24;98936.73;109615;1251;59021;-74
2023/03/30 02:36:46;;;;;;;33.50;26.60;;;;;;;1.88;90.58;98939.08;109546;1250;59404;-74
2023/03/30 02:39:34;;;;;;;39.90;27.50;;;;;;;1.85;90.79;98937.92;109643;1255;66632;-74
2023/03/30 02:42:24;;;;;;;40.20;29.40;;;;;;;1.82;90.92;98939.98;109403;1251;60737;-74
2023/03/30 02:45:12;;;;;;;42.20;30.30;;;;;;;1.80;91.21;98938.64;109610;1250;64708;-74
2023/03/30 02:47:41;;;;;;;43.90;31.90;;;;;;;1.80;91.61;98937.05;109591;1250;59343;-74
2023/03/30 02:50:27;;;;;;;42.30;31.20;;;;;;;1.82;91.77;98939.27;109583;1250;58976;-74
2023/03/30 02:53:00;;;;;;;41.50;30.30;;;;;;;1.86;91.72;98935.46;109584;1251;65777;-74
2023/03/30 02:55:46;;;;;;;35.10;29.00;;;;;;;1.92;92.29;98930.70;109565;1250;61070;-74
2023/03/30 02:58:36;;;;;;;39.80;29.20;;;;;;;1.96;93.09;98928.66;109582;1250;65096;-74
2023/03/30 03:01:28;;;;;;;41.90;30.00;;;;;;;1.98;93.07;98929.12;109572;1251;58938;-74
2023/03/30 03:04:00;;;;;;;38.00;28.50;;;;;;;2.02;93.55;98930.21;108975;1259;59316;-73
2023/03/30 03:06:28;;;;;;;39.00;29.10;;;;;;;2.05;93.63;98922.92;108944;1260;66837;-73
2023/03/30 03:08:56;;;;;;;37.10;28.30;;;;;;;2.09;93.83;98919.11;108961;1259;61056;-74
2023/03/30 03:11:22;;;;;;;38.40;29.00;;;;;;;2.11;94.16;98912.38;108968;1258;64725;-73
2023/03/30 03:13:49;;;;;;;38.30;29.70;;;;;;;2.13;94.06;98910.56;108939;1259;59000;-73
2023/03/30 03:16:16;;;;;;;39.10;28.10;;;;;;;2.16;93.88;98904.31;108976;1258;59547;-73
2023/03/30 03:18:43;;;;;;;39.70;28.80;;;;;;;2.18;94.70;98904.23;108973;1259;66881;-73
2023/03/30 03:21:12;;;;;;;42.90;27.00;;;;;;;2.19;94.65;98903.17;108996;1259;60979;-73
2023/03/30 03:23:39;;;;;;;34.40;27.10;;;;;;;2.20;94.56;98905.04;108963;1258;64822;-74
2023/03/30 03:26:06;;;;;;;35.50;26.90;;;;;;;2.23;94.69;98900.23;108952;1258;59048;-73
2023/03/30 03:28:34;;;;;;;39.90;28.20;;;;;;;2.25;94.82;98899.46;108958;1259;59007;-73
2023/03/30 03:31:02;;;;;;;34.90;26.40;;;;;;;2.27;94.73;98901.84;108794;1259;65989;-73
2023/03/30 03:33:30;;;;;;;31.20;25.20;;;;;;;2.27;94.90;98897.80;108996;1259;60768;-73
2023/03/30 03:35:59;;;;;;;39.60;30.40;;;;;;;2.26;94.65;98901.17;108951;1259;64107;-73
2023/03/30 03:38:26;;;;;;;38.70;30.40;;;;;;;2.26;95.26;98896.81;108921;1260;58968;-74
2023/03/30 03:40:56;;;;;;;39.20;31.50;;;;;;;2.28;95.46;98893.05;109226;1251;59555;-74
2023/03/30 03:43:24;;;;;;;39.00;29.50;;;;;;;2.30;95.65;98886.64;109594;1250;66664;-74
2023/03/30 03:45:51;;;;;;;34.80;27.50;;;;;;;2.32;96.04;98879.58;109270;1251;61209;-74
2023/03/30 03:48:21;;;;;;;33.70;26.40;;;;;;;2.34;96.31;98875.30;109565;1254;64712;-74
2023/03/30 03:50:50;;;;;;;35.40;26.90;;;;;;;2.36;96.59;98871.92;109557;1251;59012;-73
2023/03/30 03:53:17;;;;;;;28.80;24.00;;;;;;;2.36;97.16;98865.59;109595;1251;59091;-73
2023/03/30 03:55:45;;;;;;;31.00;23.60;;;;;;;2.34;96.75;98859.51;109616;1251;65906;-73
2023/03/30 03:58:13;;;;;;;27.20;23.40;;;;;;;2.34;96.97;98853.05;109633;1251;59649;-73
2023/03/30 04:00:40;;;;;;;29.40;22.50;;;;;;;2.33;97.48;98852.55;109585;1251;63713;-74
2023/03/30 04:03:07;;;;;;;30.00;22.20;;;;;;;2.31;97.92;98847.17;109487;1251;58998;-74
2023/03/30 04:05:35;;;;;;;27.40;22.40;;;;;;;2.31;98.32;98852.27;109607;1251;59086;-75
2023/03/30 04:08:02;;;;;;;27.90;22.20;;;;;;;2.33;98.31;98855.36;109695;1251;67022;-73
2023/03/30 04:10:34;;;;;;;28.30;22.50;;;;;;;2.35;98.42;98854.23;109453;1251;60800;-74
2023/03/30 04:13:01;;;;;;;28.80;22.40;;;;;;;2.36;98.36;98853.52;109589;1251;64089;-74
2023/03/30 04:15:27;;;;;;;29.10;23.00;;;;;;;2.37;98.26;98847.15;109583;1251;59036;-74
2023/03/30 04:17:57;;;;;;;35.30;25.50;;;;;;;2.39;98.16;98844.42;109569;1251;58987;-74
2023/03/30 04:20:28;;;;;;;31.90;23.10;;;;;;;2.43;98.33;98841.49;109225;1250;64624;-74
2023/03/30 04:22:55;;;;;;;32.50;25.20;;;;;;;2.47;98.41;98835.56;109283;1251;61070;-75
2023/03/30 04:25:27;;;;;;;35.80;27.50;;;;;;;2.51;98.99;98831.55;109574;1251;65271;-74
2023/03/30 04:27:55;;;;;;;50.40;39.30;;;;;;;2.56;99.79;98832.43;109578;1250;58947;-74
2023/03/30 04:30:22;;;;;;;51.60;41.20;;;;;;;2.60;100.00;98832.80;109612;1251;58972;-74
2023/03/30 04:33:01;;;;;;;76.90;46.80;;;;;;;2.63;100.00;98832.50;109597;1251;66391;-74
2023/03/30 04:35:30;;;;;;;63.60;47.20;;;;;;;2.67;100.00;98830.96;109605;1251;61170;-74
2023/03/30 04:37:59;;;;;;;63.70;45.40;;;;;;;2.71;100.00;98830.44;109592;1251;65062;-74
2023/03/30 04:40:25;;;;;;;51.00;42.00;;;;;;;2.76;100.00;98829.58;109527;1250;59411;-74
2023/03/30 04:42:52;;;;;;;59.90;42.80;;;;;;;2.80;100.00;98825.20;109593;1251;58985;-74
2023/03/30 04:45:19;;;;;;;58.20;42.90;;;;;;;2.85;100.00;98822.73;109518;1251;66234;-74
2023/03/30 04:47:46;;;;;;;52.70;41.80;;;;;;;2.89;100.00;98823.80;109575;1251;60963;-74
2023/03/30 04:50:14;;;;;;;55.40;43.60;;;;;;;2.95;100.00;98821.84;109566;1251;63782;-74
2023/03/30 04:52:40;;;;;;;59.20;48.10;;;;;;;2.98;100.00;98817.12;109564;1251;58987;-74
2023/03/30 04:55:08;;;;;;;56.80;45.80;;;;;;;3.03;100.00;98813.63;109609;1251;59046;-73
2023/03/30 04:57:35;;;;;;;67.70;50.00;;;;;;;3.06;100.00;98814.54;109244;1251;65939;-73
2023/03/30 05:00:06;;;;;;;67.70;51.10;;;;;;;3.10;100.00;98817.36;109592;1251;60098;-73
2023/03/30 05:02:33;;;;;;;62.50;50.30;;;;;;;3.15;100.00;98812.80;109604;1251;65171;-74
2023/03/30 05:04:59;;;;;;;64.90;50.40;;;;;;;3.19;100.00;98805.08;109589;1251;58988;-73
2023/03/30 05:07:26;;;;;;;63.90;48.20;;;;;;;3.24;100.00;98799.45;109602;1250;59123;-73
2023/03/30 05:09:53;;;;;;;56.90;45.50;;;;;;;3.29;100.00;98798.35;109577;1251;66706;-73
2023/03/30 05:12:20;;;;;;;57.30;45.30;;;;;;;3.34;100.00;98797.45;109576;1251;59771;-74
2023/03/30 05:14:47;;;;;;;50.90;42.60;;;;;;;3.39;100.00;98797.95;109564;1251;63825;-73
2023/03/30 05:17:13;;;;;;;53.30;41.40;;;;;;;3.43;100.00;98797.11;109662;1254;59060;-73
2023/03/30 05:19:40;;;;;;;49.30;39.60;;;;;;;3.48;100.00;98795.83;109604;1251;59019;-73
2023/03/30 05:22:06;;;;;;;52.50;40.30;;;;;;;3.53;100.00;98790.51;109577;1251;66969;-75
2023/03/30 05:24:33;;;;;;;49.30;40.90;;;;;;;3.61;100.00;98792.30;109565;1250;60172;-74
2023/03/30 05:27:01;;;;;;;52.50;41.30;;;;;;;3.68;100.00;98790.42;109560;1251;64783;-74
2023/03/30 05:29:27;;;;;;;53.70;42.40;;;;;;;3.77;100.00;98790.40;109597;1250;58961;-74
2023/03/30 05:31:54;;;;;;;57.80;41.40;;;;;;;3.86;100.00;98780.88;109618;1251;59368;-74
2023/03/30 05:34:21;;;;;;;50.90;40.80;;;;;;;3.96;100.00;98777.64;109624;1251;65916;-74
2023/03/30 05:36:47;;;;;;;47.10;41.00;;;;;;;4.05;100.00;98774.23;109583;1250;61044;-74
2023/03/30 05:39:14;;;;;;;54.90;43.70;;;;;;;4.16;100.00;98774.48;109585;1251;65180;-73
2023/03/30 05:41:40;;;;;;;54.30;44.30;;;;;;;4.27;100.00;98770.30;109577;1251;59315;-73
2023/03/30 05:44:07;;;;;;;57.20;46.00;;;;;;;4.36;100.00;98764.41;109560;1251;59040;-73
2023/03/30 05:46:34;;;;;;;54.00;45.60;;;;;;;4.45;100.00;98761.39;109579;1251;66875;-73
2023/03/30 05:49:00;;;;;;;58.50;46.30;;;;;;;4.52;100.00;98761.60;109581;1251;59709;-73
2023/03/30 05:51:27;;;;;;;62.10;46.40;;;;;;;4.58;100.00;98763.23;109585;1251;65076;-73
2023/03/30 05:53:53;;;;;;;60.20;45.20;;;;;;;4.67;100.00;98757.16;109252;1251;59029;-73
2023/03/30 05:56:22;;;;;;;59.40;46.30;;;;;;;4.78;100.00;98757.04;109591;1251;59442;-73
2023/03/30 05:58:49;;;;;;;62.70;45.60;;;;;;;4.93;100.00;98757.02;109266;1251;67085;-73
2023/03/30 06:01:15;;;;;;;51.70;43.60;;;;;;;5.11;100.00;98754.55;109565;1251;61111;-73
2023/03/30 06:03:42;;;;;;;54.70;43.10;;;;;;;5.32;100.00;98749.86;109552;1251;64737;-73
2023/03/30 06:06:09;;;;;;;55.70;43.60;;;;;;;5.56;100.00;98742.33;109599;1251;59016;-73
2023/03/30 06:08:36;;;;;;;55.70;42.20;;;;;;;5.80;99.42;98731.92;109579;1251;59026;-73
2023/03/30 06:11:03;;;;;;;54.90;40.80;;;;;;;6.05;98.43;98726.08;109598;1251;66922;-73
2023/03/30 06:13:30;;;;;;;55.90;41.30;;;;;;;6.24;97.38;98719.73;109265;1250;61029;-73
2023/03/30 06:15:57;;;;;;;52.60;39.10;;;;;;;6.34;96.63;98714.80;109569;1251;65047;-73
2023/03/30 06:18:24;;;;;;;54.60;40.30;;;;;;;6.40;96.45;98718.52;109529;1254;59060;-73
2023/03/30 06:20:51;;;;;;;51.10;41.00;;;;;;;6.46;95.73;98715.05;109601;1251;59044;-73
2023/03/30 06:23:17;;;;;;;54.70;39.50;;;;;;;6.50;95.04;98713.96;109258;1250;65748;-73
2023/03/30 06:25:46;;;;;;;46.70;37.00;;;;;;;6.54;94.55;98712.30;109623;1251;59694;-73
2023/03/30 06:28:12;;;;;;;54.00;35.90;;;;;;;6.59;93.95;98713.05;109619;1251;64103;-73
2023/03/30 06:30:39;;;;;;;43.60;34.60;;;;;;;6.64;93.38;98705.41;109591;1251;59006;-73
2023/03/30 06:33:06;;;;;;;48.50;28.80;;;;;;;6.70;93.14;98702.56;109605;1251;59387;-72
2023/03/30 06:35:33;;;;;;;41.50;27.90;;;;;;;6.78;92.27;98707.64;109590;1251;66916;-72
2023/03/30 06:38:00;;;;;;;41.80;30.70;;;;;;;6.85;91.82;98710.58;109629;1251;59720;-72
2023/03/30 06:40:26;;;;;;;42.40;32.00;;;;;;;6.91;91.76;98712.38;109458;1251;64211;-73
2023/03/30 06:42:53;;;;;;;43.90;30.80;;;;;;;6.97;91.22;98717.66;109576;1250;59055;-73
2023/03/30 06:45:20;;;;;;;38.10;26.70;;;;;;;7.04;90.62;98720.63;109398;1251;59249;-73
2023/03/30 06:47:46;;;;;;;37.10;26.00;;;;;;;7.09;89.52;98724.59;109615;1251;66688;-73
2023/03/30 06:50:13;;;;;;;35.40;24.80;;;;;;;7.13;89.12;98722.77;109605;1251;60253;-73
2023/03/30 06:52:40;;;;;;;32.30;23.30;;;;;;;7.19;89.15;98723.83;109630;1250;62705;-73
2023/03/30 06:55:06;;;;;;;34.80;25.70;;;;;;;7.25;89.06;98719.43;109611;1251;59098;-73
2023/03/30 06:57:33;;;;;;;33.40;23.80;;;;;;;7.33;88.74;98714.38;109593;1251;59018;-73
2023/03/30 07:00:00;;;;;;;32.20;24.90;;;;;;;7.46;88.32;98712.35;109372;1251;66078;-73
2023/03/30 07:02:26;;;;;;;33.40;24.70;;;;;;;7.65;88.24;98709.14;109620;1252;61093;-73
2023/03/30 07:04:53;;;;;;;35.50;27.90;;;;;;;7.88;87.76;98703.49;109597;1254;65775;-73
2023/03/30 07:07:20;;;;;;;31.70;22.50;;;;;;;8.11;87.22;98698.73;109579;1250;59088;-73
2023/03/30 07:09:47;;;;;;;34.40;24.90;;;;;;;8.33;86.53;98694.90;109614;1254;59026;-73
2023/03/30 07:12:14;;;;;;;33.10;25.00;;;;;;;8.52;85.74;98695.14;109599;1251;66981;-73
2023/03/30 07:14:42;;;;;;;36.80;26.50;;;;;;;8.70;84.92;98699.31;109643;1251;59711;-73
2023/03/30 07:17:09;;;;;;;39.40;29.60;;;;;;;8.87;84.20;98699.84;109610;1251;63683;-73
2023/03/30 07:19:35;;;;;;;36.10;25.10;;;;;;;8.99;83.48;98695.48;109612;1250;59014;-73
2023/03/30 07:22:02;;;;;;;32.80;21.70;;;;;;;9.17;82.96;98695.36;109593;1251;59012;-73
2023/03/30 07:24:30;;;;;;;28.20;21.10;;;;;;;9.36;82.15;98694.45;109616;1251;65651;-73
2023/03/30 07:26:56;;;;;;;36.90;26.70;;;;;;;9.54;81.00;98688.64;109439;1251;61161;-73
2023/03/30 07:29:23;;;;;;;34.00;25.00;;;;;;;9.62;80.55;98677.45;109610;1251;63685;-73
2023/03/30 07:31:50;;;;;;;32.10;26.10;;;;;;;9.64;79.81;98675.58;109579;1251;59010;-73
2023/03/30 07:34:17;;;;;;;25.60;21.60;;;;;;;9.70;79.50;98668.77;109618;1251;58869;-73
2023/03/30 07:36:43;;;;;;;29.90;21.70;;;;;;;9.84;78.97;98663.92;109596;1251;66760;-73
2023/03/30 07:39:10;;;;;;;27.40;21.30;;;;;;;10.05;78.57;98667.06;109600;1250;60803;-73
2023/03/30 07:41:36;;;;;;;29.40;18.40;;;;;;;10.28;77.93;98667.38;109619;1251;64903;-73
2023/03/30 07:44:03;;;;;;;27.40;19.90;;;;;;;10.42;77.14;98670.51;109598;1250;59036;-73
2023/03/30 07:46:30;;;;;;;22.60;19.20;;;;;;;10.54;77.11;98672.34;109246;1251;59061;-73
2023/03/30 07:48:56;;;;;;;22.00;17.00;;;;;;;10.77;76.93;98677.25;109623;1251;65596;-73
2023/03/30 07:51:25;;;;;;;17.80;13.40;;;;;;;11.07;76.00;98676.10;109637;1250;60928;-73
2023/03/30 07:53:51;;;;;;;19.10;13.60;;;;;;;11.34;74.86;98673.70;109385;1251;64711;-73
2023/03/30 07:56:18;;;;;;;17.00;12.90;;;;;;;11.63;74.87;98663.89;109609;1251;58871;-73
2023/03/30 07:58:45;;;;;;;18.20;13.90;;;;;;;11.95;74.16;98664.27;109345;1251;59039;-73
2023/03/30 08:01:12;;;;;;;21.30;14.20;;;;;;;12.16;72.68;98659.27;109630;1250;66885;-73
2023/03/30 08:03:38;;;;;;;21.40;15.30;;;;;;;12.19;71.61;98647.08;109481;1250;60709;-73
2023/03/30 08:06:06;;;;;;;20.80;15.20;;;;;;;12.24;71.50;98646.52;109617;1251;64088;-73
2023/03/30 08:08:33;;;;;;;18.80;13.90;;;;;;;12.33;71.12;98645.44;109561;1251;59055;-73
2023/03/30 08:11:00;;;;;;;21.00;12.90;;;;;;;12.41;70.44;98641.56;109617;1251;59031;-73
2023/03/30 08:13:27;;;;;;;18.30;11.90;;;;;;;12.51;69.84;98642.92;109654;1250;67156;-73
2023/03/30 08:15:53;;;;;;;20.20;13.70;;;;;;;12.60;69.33;98641.88;109640;1251;60721;-73
2023/03/30 08:18:20;;;;;;;18.10;13.30;;;;;;;12.67;68.98;98641.30;109645;1251;64745;-73
2023/03/30 08:20:52;;;;;;;15.50;12.30;;;;;;;12.77;69.01;98645.09;109372;1251;59509;-74
2023/03/30 08:23:20;;;;;;;20.70;13.00;;;;;;;12.93;68.25;98640.23;109283;1251;59018;-74
2023/03/30 08:25:51;;;;;;;15.70;11.00;;;;;;;13.05;66.93;98641.17;109619;1251;66778;-73
2023/03/30 08:28:19;;;;;;;13.90;10.20;;;;;;;13.23;66.18;98647.96;109463;1257;59739;-73
2023/03/30 08:30:46;;;;;;;13.60;9.90;;;;;;;13.32;65.24;98650.63;109653;1250;64762;-73
2023/03/30 08:33:14;;;;;;;11.10;8.00;;;;;;;13.34;63.84;98649.66;109650;1251;58973;-73
2023/03/30 08:35:46;;;;;;;12.20;6.00;;;;;;;13.46;63.10;98647.80;109330;1251;59309;-73
2023/03/30 08:38:15;;;;;;;7.10;3.80;;;;;;;13.63;62.65;98641.22;109404;1251;66281;-73
2023/03/30 08:40:45;;;;;;;4.00;3.60;;;;;;;13.72;60.82;98638.14;109668;1251;60708;-73
2023/03/30 08:43:36;;;;;;;5.40;3.30;;;;;;;13.82;60.95;98634.74;109581;1251;64814;-73
2023/03/30 08:46:03;;;;;;;5.90;3.30;;;;;;;13.98;61.60;98636.21;109609;1251;59042;-73
2023/03/30 08:48:36;;;;;;;5.30;3.70;;;;;;;14.02;60.08;98635.64;109466;1250;59037;-73
2023/03/30 08:51:28;;;;;;;4.50;3.80;;;;;;;14.02;60.60;98634.23;109589;1251;65791;-73
2023/03/30 08:54:05;;;;;;;5.70;4.10;;;;;;;14.13;60.19;98625.82;109617;1251;60702;-73
2023/03/30 08:56:38;;;;;;;3.10;2.80;;;;;;;14.28;59.32;98625.54;109529;1250;65057;-73
2023/03/30 08:59:20;;;;;;;3.20;2.70;;;;;;;14.34;58.32;98622.20;109614;1251;58962;-73
2023/03/30 09:02:00;;;;;;;3.30;2.60;;;;;;;14.41;57.96;98617.80;109628;1251;59012;-73
2023/03/30 09:04:42;;;;;;;3.40;3.10;;;;;;;14.45;57.75;98615.33;109587;1251;67060;-73
2023/03/30 09:07:35;;;;;;;4.10;2.80;;;;;;;14.41;57.54;98605.47;109633;1250;61281;-73
2023/03/30 09:10:10;;;;;;;4.50;4.00;;;;;;;14.48;57.75;98602.89;109603;1251;64219;-73
2023/03/30 09:12:42;;;;;;;3.40;3.10;;;;;;;14.56;57.17;98602.98;109233;1251;59503;-73
2023/03/30 09:15:18;;;;;;;3.40;3.00;;;;;;;14.58;57.89;98595.02;109593;1251;59081;-73
2023/03/30 09:17:49;;;;;;;4.10;2.80;;;;;;;14.62;58.06;98580.17;109601;1251;66788;-73
2023/03/30 09:20:28;;;;;;;2.70;2.50;;;;;;;14.68;58.20;98574.83;109602;1251;60696;-73
2023/03/30 09:22:59;;;;;;;5.20;3.60;;;;;;;14.75;58.13;98578.86;109515;1250;133925;-73
2023/03/30 09:25:45;;;;;;;4.30;3.50;;;;;;;14.92;58.15;98578.17;109582;1251;58988;-74
2023/03/30 09:28:22;;;;;;;6.80;5.20;;;;;;;15.18;57.71;98572.05;109618;1251;59428;-73
2023/03/30 09:31:24;;;;;;;6.70;4.90;;;;;;;15.34;57.39;98566.41;109301;1251;66727;-73
2023/03/30 09:34:12;;;;;;;5.00;3.90;;;;;;;15.37;56.98;98564.73;108925;1260;61071;-73
2023/03/30 09:36:50;;;;;;;3.50;2.40;;;;;;;15.32;56.17;98571.27;108783;1260;63911;-73
2023/03/30 09:39:20;;;;;;;4.70;2.90;;;;;;;15.33;55.70;98572.27;108953;1260;59081;-73
2023/03/30 09:42:20;;;;;;;4.80;2.70;;;;;;;15.47;55.44;98571.70;108822;1259;59215;-73
2023/03/30 09:44:51;;;;;;;5.80;4.50;;;;;;;15.69;53.99;98561.17;108941;1259;65795;-73
2023/03/30 09:47:27;;;;;;;8.40;5.80;;;;;;;15.72;54.13;98549.79;108953;1261;60829;-73
2023/03/30 09:49:55;;;;;;;4.30;2.60;;;;;;;15.73;54.25;98538.64;108914;1259;64213;-73
2023/03/30 09:52:25;;;;;;;6.00;3.00;;;;;;;15.73;54.70;98527.33;108843;1259;59035;-73
2023/03/30 09:54:52;;;;;;;3.70;1.90;;;;;;;15.78;54.25;98523.84;108954;1259;59179;-73
2023/03/30 09:57:26;;;;;;;4.30;2.50;;;;;;;15.74;54.35;98519.45;108955;1259;66059;-73
2023/03/30 09:59:55;;;;;;;3.30;2.10;;;;;;;15.74;54.52;98519.52;108942;1259;59957;-73
2023/03/30 10:02:24;;;;;;;3.40;2.20;;;;;;;15.79;55.12;98520.69;108778;1259;63738;-74
2023/03/30 10:04:59;;;;;;;3.70;1.80;;;;;;;15.99;55.06;98516.61;108934;1259;59517;-73
2023/03/30 10:07:33;;;;;;;5.50;4.10;;;;;;;16.27;54.31;98509.91;108913;1261;59851;-73
2023/03/30 10:10:14;;;;;;;5.30;3.00;;;;;;;16.48;54.22;98507.64;109094;1250;65763;-74
2023/03/30 10:12:41;;;;;;;4.40;2.60;;;;;;;16.71;53.85;98505.79;109633;1250;60041;-73
2023/03/30 10:15:15;;;;;;;5.80;3.60;;;;;;;16.79;53.10;98510.01;109609;1250;64108;-73
2023/03/30 10:17:45;;;;;;;11.70;9.40;;;;;;;16.74;51.95;98519.64;109645;1251;59080;-73
2023/03/30 10:20:34;;;;;;;16.00;9.40;;;;;;;16.61;51.76;98521.23;109641;1250;59034;-73
2023/03/30 10:23:12;;;;;;;6.20;4.00;;;;;;;16.42;52.19;98513.60;109622;1250;67001;-73
2023/03/30 10:25:40;;;;;;;3.90;2.60;;;;;;;16.27;51.86;98511.14;109645;1250;59689;-73
2023/03/30 10:28:16;;;;;;;5.70;3.00;;;;;;;16.08;52.29;98503.17;109670;1250;63873;-73
2023/03/30 10:30:54;;;;;;;6.00;3.70;;;;;;;16.04;53.16;98496.02;109662;1251;59278;-72
2023/03/30 10:33:22;;;;;;;6.00;3.40;;;;;;;16.20;53.24;98485.98;109654;1250;58921;-72
2023/03/30 10:35:52;;;;;;;3.90;2.80;;;;;;;16.40;53.23;98480.30;109664;1250;67148;-72
2023/03/30 10:38:19;;;;;;;4.70;2.80;;;;;;;16.45;53.10;98472.84;109671;1250;60736;-72
2023/03/30 10:40:50;;;;;;;4.50;2.70;;;;;;;16.29;52.28;98470.60;109628;1250;64854;-72
2023/03/30 10:43:21;;;;;;;4.70;2.90;;;;;;;15.94;52.00;98478.52;109295;1251;58973;-72
2023/03/30 10:45:50;;;;;;;4.60;2.60;;;;;;;15.59;52.38;98481.86;109291;1251;59196;-73
2023/03/30 10:48:34;;;;;;;3.10;2.50;;;;;;;15.37;52.70;98473.05;109681;1250;65636;-73
2023/03/30 10:51:13;;;;;;;4.20;2.80;;;;;;;15.29;52.79;98468.77;109650;1250;59904;-73
2023/03/30 10:53:58;;;;;;;4.30;3.10;;;;;;;15.31;52.85;98465.35;109635;1250;64740;-73
2023/03/30 10:56:46;;;;;;;5.80;2.90;;;;;;;15.35;53.19;98458.53;109609;1250;58928;-73
2023/03/30 10:59:29;;;;;;;6.60;3.00;;;;;;;15.48;53.43;98451.08;109638;1250;59303;-73
2023/03/30 11:02:19;;;;;;;5.40;3.20;;;;;;;15.63;53.37;98453.46;109378;1251;64709;-73
2023/03/30 11:04:49;;;;;;;5.30;3.00;;;;;;;15.60;53.15;98456.73;109653;1250;61082;-73
2023/03/30 11:07:29;;;;;;;;;;;;;;;15.54;53.50;98453.34;109299;1251;62776;-73
2023/03/30 11:10:01;;;;;;;;;;;;;;;15.42;53.84;98452.23;109622;1250;59025;-73
2023/03/30 11:12:36;;;;;;;4.70;2.90;;;;;;;15.32;54.63;98447.19;109627;1250;59095;-72
2023/03/30 11:15:12;;;;;;;5.50;3.50;;;;;;;15.38;54.69;98436.98;109527;1253;66699;-73
2023/03/30 11:17:58;;;;;;;4.20;2.80;;;;;;;15.51;54.86;98430.40;109653;1250;60739;-73
2023/03/30 11:20:46;;;;;;;6.50;3.70;;;;;;;15.74;55.23;98423.86;109619;1250;64748;-72
2023/03/30 11:23:28;;;;;;;4.90;2.60;;;;;;;15.89;55.00;98412.09;109592;1250;59020;-72
2023/03/30 11:26:11;;;;;;;5.10;2.80;;;;;;;15.94;54.58;98414.94;109635;1250;58969;-72
2023/03/30 11:28:59;;;;;;;6.70;2.50;;;;;;;15.97;53.88;98419.11;109663;1250;66644;-72
2023/03/30 11:31:38;;;;;;;5.90;2.50;;;;;;;16.03;54.39;98416.21;109681;1250;60991;-73
2023/03/30 11:34:16;;;;;;;4.50;2.70;;;;;;;16.18;53.30;98422.61;109633;1250;64749;-72
2023/03/30 11:36:56;;;;;;;3.40;2.60;;;;;;;16.23;53.71;98420.27;109605;1250;58990;-72
2023/03/30 11:39:30;;;;;;;7.00;4.00;;;;;;;16.34;54.14;98410.44;109676;1250;59362;-72